Time;durP1;ratioP1;P1;durP2;ratioP2;P2;SDS_P1;SDS_P2;PMS_P1;PMS_P2;Temp;Humidity;BMP_temperature;BMP_pressure;BME280_temperature;BME280_humidity;BME280_pressure;Samples;Min_cycle;Max_cycle;Signal;HPM_P1;HPM_P2
2023/05/01 00:00:24;;;;;;;10.53;6.33;;;;;;;7.86;69.95;101374.23;5170683;55;1136827;-79
2023/05/01 00:05:32;;;;;;;15.50;7.47;;;;;;;7.77;71.02;101385.25;5184023;55;1136623;-80
2023/05/01 00:10:38;;;;;;;18.37;8.53;;;;;;;7.72;71.40;101378.90;5204474;55;1136637;-80
2023/05/01 00:15:44;;;;;;;22.60;7.53;;;;;;;7.63;71.56;101370.64;5183940;55;1136699;-80
2023/05/01 00:20:49;;;;;;;11.63;5.50;;;;;;;7.48;72.07;101374.06;5183848;55;1136484;-80
2023/05/01 00:25:55;;;;;;;13.00;5.07;;;;;;;7.27;72.70;101371.58;5190047;55;1136658;-80
2023/05/01 00:31:01;;;;;;;11.00;4.97;;;;;;;7.17;73.31;101374.30;5098112;56;1136632;-80
2023/05/01 00:36:06;;;;;;;9.33;5.03;;;;;;;7.08;72.86;101362.89;5097920;55;1136730;-80
2023/05/01 00:41:12;;;;;;;13.92;5.56;;;;;;;7.06;74.02;101359.48;5098218;55;1134699;-80
2023/05/01 00:46:18;;;;;;;23.10;4.87;;;;;;;7.03;74.54;101355.22;5175376;55;1136682;-79
2023/05/01 00:51:26;;;;;;;8.47;4.33;;;;;;;6.96;74.67;101346.41;5183867;55;1136616;-79
2023/05/01 00:56:34;;;;;;;9.03;5.37;;;;;;;6.88;74.78;101343.28;5183912;55;1136759;-80
2023/05/01 01:01:42;;;;;;;12.53;6.83;;;;;;;6.92;75.55;101342.22;5204194;55;1136760;-80
2023/05/01 01:06:58;;;;;;;9.83;5.28;;;;;;;7.00;75.92;101342.25;5183737;55;1136701;-80
2023/05/01 01:12:28;;;;;;;10.30;5.47;;;;;;;6.98;75.36;101345.87;5170178;55;1134730;-79
2023/05/01 01:17:56;;;;;;;17.70;8.77;;;;;;;6.80;74.73;101344.99;5183700;55;1136743;-80
2023/05/01 01:23:40;;;;;;;20.07;10.03;;;;;;;6.52;74.20;101346.79;5204255;55;1136672;-80
2023/05/01 01:29:23;;;;;;;18.23;10.10;;;;;;;6.43;75.48;101339.33;5119830;55;1139027;-80
2023/05/01 01:34:40;;;;;;;15.70;8.90;;;;;;;6.45;76.44;101344.51;5097243;55;1138874;-80
2023/05/01 01:40:11;;;;;;;18.77;10.60;;;;;;;6.49;76.31;101335.56;5097286;55;1136596;-79
2023/05/01 01:45:27;;;;;;;16.37;8.97;;;;;;;6.41;75.96;101326.75;5110487;55;1138845;-80
2023/05/01 01:50:37;;;;;;;13.60;8.35;;;;;;;6.32;76.71;101330.64;5202885;55;1136745;-79
2023/05/01 01:55:45;;;;;;;15.88;7.35;;;;;;;6.28;76.97;101330.84;5183575;55;1136633;-80
2023/05/01 02:00:52;;;;;;;14.83;6.77;;;;;;;6.23;76.82;101321.04;5103632;55;1136766;-79
2023/05/01 02:05:59;;;;;;;10.47;5.70;;;;;;;6.19;76.80;101317.70;5171435;55;1136650;-80
2023/05/01 02:11:06;;;;;;;12.18;5.42;;;;;;;6.16;77.10;101319.15;5121768;55;1136531;-80
2023/05/01 02:16:13;;;;;;;10.38;5.50;;;;;;;6.15;77.05;101307.40;5147861;55;1136753;-80
2023/05/01 02:21:21;;;;;;;11.67;5.70;;;;;;;6.08;76.84;101310.79;5183680;55;1136660;-80
2023/05/01 02:26:29;;;;;;;14.83;5.90;;;;;;;6.01;76.97;101302.79;5179797;55;1136667;-80
2023/05/01 02:31:35;;;;;;;17.43;7.27;;;;;;;5.94;76.58;101306.17;5003502;56;1136723;-79
2023/05/01 02:36:41;;;;;;;9.80;5.30;;;;;;;5.93;77.40;101293.11;5090512;55;1138918;-79
2023/05/01 02:41:49;;;;;;;11.97;7.00;;;;;;;5.98;78.02;101286.70;5137997;56;1134617;-80
2023/05/01 02:46:57;;;;;;;14.23;7.40;;;;;;;5.96;77.78;101284.61;5118014;56;1136727;-80
2023/05/01 02:52:04;;;;;;;13.13;7.42;;;;;;;5.96;77.64;101279.36;5118214;56;1136826;-80
2023/05/01 03:03:08;;;;;;;12.63;7.58;;;;;;;5.86;77.78;101258.38;5029653;56;1136887;-80
2023/05/01 03:08:14;;;;;;;20.97;8.73;;;;;;;5.55;76.20;101269.41;5033854;57;1136663;-80
2023/05/01 03:13:20;;;;;;;15.72;8.15;;;;;;;5.16;76.64;101273.34;4970722;58;1136796;-80
2023/05/01 03:18:26;;;;;;;13.53;6.43;;;;;;;5.19;79.51;101258.80;5033820;57;1136827;-80
2023/05/01 03:23:32;;;;;;;14.73;7.03;;;;;;;5.19;79.51;101258.80;5058003;55;1136801;-79
2023/05/01 03:28:37;;;;;;;14.10;5.93;;;;;;;5.24;79.39;101267.75;5195624;55;1136867;-79
2023/05/01 03:33:44;;;;;;;12.10;6.33;;;;;;;5.24;79.23;101261.19;5117831;56;1136781;-79
2023/05/01 03:38:51;;;;;;;19.40;5.20;;;;;;;5.18;78.88;101258.86;5111717;55;1136928;-79
2023/05/01 03:44:01;;;;;;;8.40;4.83;;;;;;;5.09;78.79;101255.30;5063471;56;1140898;-79
2023/05/01 03:49:14;;;;;;;18.45;6.33;;;;;;;5.13;79.93;101247.70;5094348;56;1134592;-79
2023/05/01 03:54:21;;;;;;;11.30;5.10;;;;;;;5.25;80.60;101254.57;5117657;56;1136793;-79
2023/05/01 03:59:36;;;;;;;9.23;5.73;;;;;;;5.27;80.20;101251.42;5046446;57;1136872;-79
2023/05/01 04:04:42;;;;;;;18.13;8.30;;;;;;;5.09;79.14;101248.29;5118114;55;1134746;-79
2023/05/01 04:09:47;;;;;;;18.33;9.30;;;;;;;4.78;79.14;101256.61;5117806;55;1136690;-79
2023/05/01 04:14:53;;;;;;;15.93;8.67;;;;;;;4.62;80.11;101257.30;5043986;56;1136768;-80
2023/05/01 04:19:59;;;;;;;14.73;7.03;;;;;;;4.66;81.81;101255.81;5095766;56;1136785;-80
2023/05/01 04:25:06;;;;;;;15.30;6.10;;;;;;;4.78;83.09;101250.05;5104530;56;1136756;-80
2023/05/01 04:30:12;;;;;;;10.98;5.25;;;;;;;4.92;83.67;101246.84;5052923;55;1136773;-79
2023/05/01 04:35:18;;;;;;;15.30;6.28;;;;;;;4.99;83.84;101244.83;5119119;55;1136792;-79
2023/05/01 04:40:24;;;;;;;28.03;15.43;;;;;;;5.11;85.62;101245.14;5117149;55;1136594;-79
2023/05/01 04:45:30;;;;;;;33.97;16.23;;;;;;;5.22;85.89;101251.23;5096734;56;1139029;-80
2023/05/01 04:50:36;;;;;;;30.67;14.63;;;;;;;5.32;85.62;101250.38;5203944;55;1138686;-79
2023/05/01 04:55:42;;;;;;;36.23;14.47;;;;;;;5.43;86.21;101257.30;5114972;56;1138929;-79
2023/05/01 05:00:52;;;;;;;28.20;11.43;;;;;;;5.54;87.49;101251.97;5020151;57;1138733;-79
2023/05/01 05:06:00;;;;;;;18.65;10.18;;;;;;;5.61;87.69;101249.47;5061078;57;1138847;-80
2023/05/01 05:11:06;;;;;;;21.33;9.97;;;;;;;5.74;87.67;101246.28;5183089;55;1138922;-80
2023/05/01 05:16:19;;;;;;;25.03;8.43;;;;;;;5.89;87.88;101241.66;5170543;55;1136894;-78
2023/05/01 05:21:25;;;;;;;14.00;7.65;;;;;;;6.17;87.75;101249.09;5183712;55;1136637;-79
2023/05/01 05:26:32;;;;;;;17.97;7.77;;;;;;;6.51;88.08;101246.53;5178330;55;1138726;-79
2023/05/01 05:31:40;;;;;;;17.33;7.60;;;;;;;6.91;88.05;101247.16;5098027;55;1139118;-79
2023/05/01 05:36:45;;;;;;;17.00;6.87;;;;;;;7.25;87.74;101235.77;5003598;57;1136735;-79
2023/05/01 05:41:52;;;;;;;19.67;6.60;;;;;;;7.52;86.02;101239.56;5107014;56;1136699;-79
2023/05/01 05:46:58;;;;;;;19.83;6.40;;;;;;;7.80;84.79;101232.34;5165953;55;1136740;-79
2023/05/01 05:52:06;;;;;;;12.47;5.85;;;;;;;8.01;82.21;101232.95;5182555;55;1136502;-79
2023/05/01 05:57:11;;;;;;;12.23;6.30;;;;;;;8.22;83.34;101230.44;5144935;55;1136754;-80
2023/05/01 06:02:19;;;;;;;13.15;5.55;;;;;;;8.50;82.99;101220.98;5046523;57;1136601;-79
2023/05/01 06:07:24;;;;;;;20.50;6.97;;;;;;;8.80;83.58;101217.88;5032436;56;1136639;-79
2023/05/01 06:12:31;;;;;;;12.40;6.03;;;;;;;9.11;82.57;101227.45;5117500;56;1136600;-79
2023/05/01 06:17:36;;;;;;;11.87;5.77;;;;;;;9.38;78.21;101225.77;5138029;56;1138341;-79
2023/05/01 06:22:42;;;;;;;11.77;5.40;;;;;;;9.48;77.85;101220.76;5030953;57;1136742;-79
2023/05/01 06:27:55;;;;;;;16.25;5.22;;;;;;;9.63;76.62;101212.36;5078362;56;1136784;-79
2023/05/01 06:33:02;;;;;;;10.38;4.03;;;;;;;9.82;77.44;101215.07;5129743;56;1143093;-79
2023/05/01 06:38:08;;;;;;;16.73;4.77;;;;;;;10.13;77.44;101221.05;5097025;55;1138690;-79
2023/05/01 06:43:14;;;;;;;11.33;4.70;;;;;;;10.38;75.58;101215.06;5107397;56;1140871;-79
2023/05/01 06:48:20;;;;;;;8.60;3.90;;;;;;;10.69;75.65;101213.88;5033800;56;1140871;-79
2023/05/01 06:53:26;;;;;;;12.13;4.07;;;;;;;10.83;71.87;101208.02;5013418;57;1138914;-78
2023/05/01 06:58:31;;;;;;;7.47;3.10;;;;;;;11.09;71.65;101200.94;5144456;55;1140808;-77
2023/05/01 07:03:37;;;;;;;8.83;3.30;;;;;;;11.43;67.60;101202.58;5131672;55;1138913;-79
2023/05/01 07:08:43;;;;;;;6.57;3.50;;;;;;;11.62;68.46;101200.30;5170536;55;1138734;-78
2023/05/01 07:13:48;;;;;;;7.43;3.83;;;;;;;11.88;67.53;101194.03;5184596;55;1138623;-78
2023/05/01 07:18:54;;;;;;;5.23;3.17;;;;;;;12.08;62.28;101185.09;5138138;56;1138654;-78
2023/05/01 07:24:00;;;;;;;8.67;3.57;;;;;;;12.24;62.88;101188.30;5118225;56;1138730;-78
2023/05/01 07:29:05;;;;;;;6.60;2.73;;;;;;;12.42;63.14;101198.03;5101379;56;1138704;-79
2023/05/01 07:34:11;;;;;;;8.53;2.80;;;;;;;12.47;57.26;101195.90;5153243;55;1138718;-78
2023/05/01 07:39:17;;;;;;;9.05;4.08;;;;;;;12.53;58.87;101192.28;5173195;55;1138676;-78
2023/05/01 07:44:22;;;;;;;7.33;3.50;;;;;;;12.69;58.25;101190.65;5151789;55;1138716;-78
2023/05/01 07:49:28;;;;;;;7.80;3.37;;;;;;;12.78;59.12;101186.47;5096978;55;1138662;-78
2023/05/01 07:54:35;;;;;;;10.07;3.60;;;;;;;12.86;58.68;101171.63;5158028;55;1138877;-79
2023/05/01 07:59:40;;;;;;;9.60;3.50;;;;;;;13.07;54.67;101165.64;5150294;55;1140910;-80
2023/05/01 08:04:47;;;;;;;6.90;3.80;;;;;;;13.16;58.60;101160.96;5014937;57;1138817;-79
2023/05/01 08:09:52;;;;;;;6.00;3.20;;;;;;;13.31;56.58;101153.96;5137333;56;1138701;-76
2023/05/01 08:14:58;;;;;;;9.13;3.60;;;;;;;13.54;57.73;101149.50;5116869;56;1138596;-77
2023/05/01 08:20:05;;;;;;;6.70;3.00;;;;;;;13.78;57.63;101151.98;5102636;55;1138827;-77
2023/05/01 08:25:11;;;;;;;6.17;3.05;;;;;;;14.00;57.69;101153.27;5115853;56;1138947;-80
2023/05/01 08:30:16;;;;;;;7.72;3.20;;;;;;;14.15;57.82;101140.52;5104596;56;1138914;-74
2023/05/01 08:35:22;;;;;;;8.23;3.02;;;;;;;14.38;56.62;101147.42;5041162;56;1138821;-77
2023/05/01 08:40:27;;;;;;;4.63;2.97;;;;;;;14.41;55.12;101137.89;5030933;57;1138958;-77
2023/05/01 08:45:37;;;;;;;7.83;3.03;;;;;;;14.48;50.92;101133.39;5057277;57;1138685;-79
2023/05/01 08:50:46;;;;;;;5.90;2.80;;;;;;;14.58;51.84;101118.33;5127380;56;1138818;-76
2023/05/01 08:55:55;;;;;;;8.30;2.87;;;;;;;14.55;52.23;101129.22;5127569;56;1138784;-76
2023/05/01 09:01:02;;;;;;;9.57;3.03;;;;;;;14.65;51.67;101118.17;5114183;55;1138813;-78
2023/05/01 09:06:10;;;;;;;7.17;3.73;;;;;;;14.88;53.87;101099.72;5143276;55;1138718;-79
2023/05/01 09:11:16;;;;;;;9.08;3.45;;;;;;;15.13;51.39;101105.08;5119917;56;1138832;-73
2023/05/01 09:16:22;;;;;;;4.55;2.10;;;;;;;15.29;51.74;101102.77;5147277;56;1138672;-80
2023/05/01 09:21:30;;;;;;;7.80;2.83;;;;;;;15.46;52.80;101086.61;5041981;57;1138628;-75
2023/05/01 09:26:40;;;;;;;7.70;2.93;;;;;;;15.64;47.08;101084.16;5119324;56;1138815;-74
2023/05/01 09:31:46;;;;;;;8.80;2.60;;;;;;;15.60;49.03;101084.08;5102326;56;1138807;-79
2023/05/01 09:36:52;;;;;;;6.30;2.90;;;;;;;15.66;48.36;101083.05;4998088;57;1138755;-77
2023/05/01 09:41:58;;;;;;;4.83;3.10;;;;;;;15.77;45.33;101075.41;5077232;56;1138663;-78
2023/05/01 09:47:04;;;;;;;11.83;3.37;;;;;;;15.88;49.00;101067.78;5043906;56;1138710;-82
2023/05/01 09:52:14;;;;;;;6.55;2.70;;;;;;;15.98;43.76;101059.28;5003327;57;1140961;-79
2023/05/01 09:57:37;;;;;;;5.60;2.85;;;;;;;16.12;44.85;101061.52;5010301;57;1138928;-81
2023/05/01 10:02:47;;;;;;;14.15;3.75;;;;;;;16.22;44.70;101052.16;5024377;57;1138794;-79
2023/05/01 10:08:04;;;;;;;16.30;4.30;;;;;;;16.36;43.33;101055.23;4997472;57;1140809;-80
2023/05/01 10:13:17;;;;;;;8.73;3.98;;;;;;;16.44;44.41;101052.70;5077948;56;1140858;-78
2023/05/01 10:18:22;;;;;;;;;;;;;;;16.68;45.50;101040.21;4965866;57;1138767;-81
2023/05/01 10:23:28;;;;;;;8.07;3.13;;;;;;;16.85;45.18;101041.28;5077281;56;975942;-79
2023/05/01 10:28:34;;;;;;;5.53;3.23;;;;;;;16.99;45.06;101034.61;5059401;56;1136710;-83
2023/05/01 10:33:41;;;;;;;8.17;2.90;;;;;;;17.05;41.89;101020.67;5121642;55;1138807;-80
2023/05/01 10:38:48;;;;;;;5.27;2.87;;;;;;;17.05;43.69;101016.66;5140267;56;1138743;-81
2023/05/01 10:43:58;;;;;;;8.40;3.30;;;;;;;17.03;42.06;101011.95;5108926;56;1139058;-76
2023/05/01 10:49:03;;;;;;;13.10;3.57;;;;;;;17.15;43.11;101000.06;5110132;56;1138662;-80
2023/05/01 10:54:22;;;;;;;9.43;3.40;;;;;;;17.15;38.93;101006.25;5112393;55;1140755;-79
2023/05/01 10:59:48;;;;;;;8.03;3.47;;;;;;;17.18;41.01;101001.11;5145147;55;1138839;-76
2023/05/01 11:04:54;;;;;;;7.83;3.77;;;;;;;17.26;41.22;100981.66;5127581;55;1138749;-81
2023/05/01 11:10:00;;;;;;;8.70;3.30;;;;;;;17.37;37.84;100982.77;5043228;57;1138756;-80
2023/05/01 11:15:08;;;;;;;12.63;3.20;;;;;;;17.43;38.18;100981.65;5163055;56;1139142;-77
2023/05/01 11:20:27;;;;;;;5.45;3.00;;;;;;;17.63;40.44;100977.00;5038442;57;1141016;-78
2023/05/01 11:25:33;;;;;;;6.87;3.90;;;;;;;17.79;40.15;100954.44;5126096;56;1138918;-78
2023/05/01 11:30:42;;;;;;;9.67;4.30;;;;;;;17.98;38.85;100956.59;5140291;56;1138723;-76
2023/05/01 11:35:50;;;;;;;9.47;4.30;;;;;;;18.12;38.71;100927.91;4994905;57;1138709;-76
2023/05/01 11:41:00;;;;;;;6.58;3.16;;;;;;;17.98;38.14;100939.20;4994062;57;1138877;-79
2023/05/01 11:46:05;;;;;;;4.70;3.30;;;;;;;17.96;38.58;100933.16;5014707;57;1138793;-80
2023/05/01 11:51:14;;;;;;;8.43;3.53;;;;;;;18.00;39.65;100929.17;5082729;56;1138872;-80
2023/05/01 11:56:22;;;;;;;10.70;3.70;;;;;;;18.18;40.47;100929.97;5080327;56;1185215;-77
2023/05/01 12:01:43;;;;;;;7.07;3.60;;;;;;;18.27;41.71;100920.48;5011481;57;1140832;-75
2023/05/01 12:06:48;;;;;;;8.87;3.80;;;;;;;18.32;39.10;100918.67;4933534;57;1138694;-80
2023/05/01 12:11:55;;;;;;;6.37;3.40;;;;;;;18.41;39.31;100919.03;5060085;56;1138819;-79
2023/05/01 12:17:02;;;;;;;7.73;3.40;;;;;;;18.61;38.75;100884.34;5102137;56;1138830;-82
2023/05/01 12:22:09;;;;;;;8.63;3.37;;;;;;;18.77;36.07;100891.59;4933525;57;1138759;-78
2023/05/01 12:27:15;;;;;;;12.13;3.67;;;;;;;18.71;37.94;100885.54;4947223;57;1138969;-83
2023/05/01 12:32:24;;;;;;;11.53;3.52;;;;;;;18.76;36.93;100875.19;5039439;56;1140824;-81
2023/05/01 12:37:33;;;;;;;4.50;2.80;;;;;;;18.92;38.33;100869.02;5112890;55;1140907;-81
2023/05/01 12:42:39;;;;;;;8.38;3.30;;;;;;;18.92;37.66;100856.96;5106759;56;1138868;-79
2023/05/01 12:47:45;;;;;;;11.03;4.25;;;;;;;19.04;38.98;100846.75;5061430;56;1138771;-80
2023/05/01 12:52:51;;;;;;;5.05;3.30;;;;;;;19.02;38.38;100841.55;5021850;56;1140821;-78
2023/05/01 12:57:57;;;;;;;12.13;3.62;;;;;;;18.88;36.81;100828.80;5031139;55;1190571;-81
2023/05/01 13:03:08;;;;;;;11.12;3.75;;;;;;;18.79;36.81;100809.17;5014607;56;1234782;-77
2023/05/01 13:08:12;;;;;;;4.62;3.27;;;;;;;18.78;36.54;100798.65;5038728;55;1232672;-80
2023/05/01 13:13:25;;;;;;;4.90;2.80;;;;;;;18.91;38.57;100800.34;5033178;56;1138733;-83
2023/05/01 13:18:33;;;;;;;11.18;3.20;;;;;;;19.13;37.65;100796.14;5046252;56;1138789;-80
2023/05/01 13:23:41;;;;;;;4.87;2.70;;;;;;;19.17;35.13;100786.27;5115911;56;1171064;-79
2023/05/01 13:28:48;;;;;;;8.00;3.50;;;;;;;19.16;35.75;100781.91;5114931;55;1251799;-77
2023/05/01 13:33:55;;;;;;;8.28;3.27;;;;;;;19.13;34.45;100768.83;5068126;55;1138737;-79
2023/05/01 13:39:02;;;;;;;8.05;4.30;;;;;;;19.16;34.25;100770.34;5181482;55;1243493;-77
2023/05/01 13:44:07;;;;;;;8.03;2.90;;;;;;;19.13;34.54;100772.84;5080504;56;1246678;-75
2023/05/01 13:49:14;;;;;;;5.65;2.35;;;;;;;19.27;34.84;100758.76;5115543;55;1252881;-78
2023/05/01 13:54:20;;;;;;;8.00;3.42;;;;;;;19.44;34.35;100755.55;5135429;55;1251562;-81
2023/05/01 13:59:26;;;;;;;2.62;2.10;;;;;;;19.47;32.50;100740.97;5032877;56;1138872;-81
2023/05/01 14:04:31;;;;;;;7.00;2.80;;;;;;;19.54;33.08;100737.98;5115897;55;1138821;-79
2023/05/01 14:09:37;;;;;;;6.10;2.75;;;;;;;19.75;29.89;100726.16;5137454;55;1138705;-82
2023/05/01 14:14:48;;;;;;;10.98;3.22;;;;;;;19.86;30.60;100716.91;5029450;55;1138829;-82
2023/05/01 14:19:53;;;;;;;14.07;3.20;;;;;;;19.88;30.96;100709.48;5067687;56;1141010;-79
2023/05/01 14:24:59;;;;;;;6.42;2.67;;;;;;;19.82;30.52;100719.09;5052474;56;1140942;-79
2023/05/01 14:30:07;;;;;;;3.55;2.45;;;;;;;19.70;30.42;100711.60;5096592;56;1138884;-81
2023/05/01 14:35:13;;;;;;;6.62;2.87;;;;;;;19.77;31.31;100708.03;5109017;56;1165767;-76
2023/05/01 14:40:27;;;;;;;6.60;2.25;;;;;;;19.87;31.47;100697.91;5035514;55;1138722;-79
2023/05/01 14:45:34;;;;;;;2.85;2.15;;;;;;;19.91;31.14;100702.44;5048635;56;1138714;-85
2023/05/01 14:50:40;;;;;;;8.30;2.90;;;;;;;19.91;29.77;100695.22;5033777;56;1138952;-82
2023/05/01 14:55:46;;;;;;;7.22;3.00;;;;;;;19.87;30.78;100689.02;5028117;56;1138775;-76
2023/05/01 15:00:52;;;;;;;3.67;2.27;;;;;;;19.79;29.51;100684.55;5058959;55;1138825;-81
2023/05/01 15:05:57;;;;;;;12.33;2.87;;;;;;;19.83;30.60;100677.83;5093397;56;1138967;-83
2023/05/01 15:11:03;;;;;;;5.40;3.12;;;;;;;19.81;29.68;100669.61;5114389;56;1140984;-83
2023/05/01 15:16:09;;;;;;;10.55;3.55;;;;;;;19.70;29.93;100656.59;5053350;56;1138879;-80
2023/05/01 15:21:15;;;;;;;9.25;3.58;;;;;;;19.55;30.79;100639.05;5033012;56;1140842;-84
2023/05/01 15:26:21;;;;;;;8.77;5.07;;;;;;;19.65;32.43;100636.98;5117422;56;1138870;-83
2023/05/01 15:31:26;;;;;;;9.43;4.33;;;;;;;19.82;32.07;100625.66;5137078;56;1138913;-81
2023/05/01 15:36:32;;;;;;;13.20;6.15;;;;;;;19.65;32.14;100627.08;5033856;56;1138830;-80
2023/05/01 15:41:38;;;;;;;6.37;3.17;;;;;;;19.46;32.78;100623.94;5014233;55;1140848;-81
2023/05/01 15:46:46;;;;;;;4.03;2.75;;;;;;;19.30;32.15;100617.63;5086998;56;1138820;-80
2023/05/01 15:51:51;;;;;;;4.83;2.90;;;;;;;19.27;32.53;100610.42;5009105;56;1138943;-77
2023/05/01 15:57:00;;;;;;;7.47;3.10;;;;;;;19.22;32.42;100603.42;5002023;55;1139123;-79
2023/05/01 16:02:07;;;;;;;7.50;3.52;;;;;;;19.16;32.90;100594.72;5011797;56;1138937;-83
2023/05/01 16:07:14;;;;;;;17.00;8.23;;;;;;;19.13;32.33;100595.06;5086054;56;1138896;-80
2023/05/01 16:12:20;;;;;;;14.10;6.90;;;;;;;19.11;33.31;100591.70;5025558;56;1140936;-82
2023/05/01 16:17:26;;;;;;;19.17;11.50;;;;;;;19.13;33.66;100594.55;5049873;56;1140846;-80
2023/05/01 16:22:33;;;;;;;14.98;6.12;;;;;;;19.11;34.07;100585.84;5012908;56;1143108;-82
2023/05/01 16:27:43;;;;;;;13.56;4.20;;;;;;;19.06;34.98;100586.05;5094790;55;1140865;-78
2023/05/01 16:32:49;;;;;;;5.80;3.58;;;;;;;19.06;34.71;100578.00;5110789;56;1141117;-79
2023/05/01 16:37:55;;;;;;;7.67;3.60;;;;;;;19.03;34.70;100581.86;5037971;55;1139047;-78
2023/05/01 16:43:01;;;;;;;10.58;3.95;;;;;;;18.93;34.60;100574.03;5033456;55;1138761;-79
2023/05/01 16:48:07;;;;;;;9.78;3.77;;;;;;;18.92;34.68;100568.33;5102958;56;1140684;-81
2023/05/01 16:53:14;;;;;;;13.84;6.24;;;;;;;18.85;34.58;100559.80;5098487;56;1143008;-79
2023/05/01 16:58:19;;;;;;;10.85;4.85;;;;;;;18.77;35.29;100558.48;5077433;56;1140825;-78
2023/05/01 17:03:25;;;;;;;8.65;2.50;;;;;;;18.70;35.61;100554.30;5128414;55;1140878;-77
2023/05/01 17:08:31;;;;;;;17.98;3.90;;;;;;;18.59;35.37;100556.84;5116548;55;1138965;-77
2023/05/01 17:13:37;;;;;;;19.82;8.70;;;;;;;18.52;35.73;100561.16;5110963;56;1140972;-78
2023/05/01 17:18:42;;;;;;;56.35;28.25;;;;;;;18.46;36.34;100562.36;5136459;56;1140937;-79
2023/05/01 17:23:48;;;;;;;30.77;17.00;;;;;;;18.45;36.99;100552.14;5048888;56;1143045;-80
2023/05/01 17:28:53;;;;;;;38.10;15.67;;;;;;;18.41;37.35;100549.46;4957380;57;1142908;-78
2023/05/01 17:33:59;;;;;;;33.25;11.53;;;;;;;18.39;37.82;100548.79;5010635;57;1142972;-77
2023/05/01 17:39:05;;;;;;;19.77;9.73;;;;;;;18.35;37.83;100552.80;4984422;56;1142899;-78
2023/05/01 17:44:10;;;;;;;30.08;16.45;;;;;;;18.30;38.21;100547.13;4987322;57;1141036;-80
2023/05/01 17:49:16;;;;;;;22.13;13.18;;;;;;;18.20;37.60;100548.63;4986274;57;1143024;-78
2023/05/01 17:54:21;;;;;;;56.07;24.03;;;;;;;18.07;38.07;100548.79;5078256;57;1142899;-79
2023/05/01 17:59:29;;;;;;;37.03;15.10;;;;;;;17.93;38.12;100543.09;4971468;56;1144109;-78
2023/05/01 18:04:34;;;;;;;40.43;18.50;;;;;;;17.84;39.37;100544.61;4966636;57;1142818;-79
2023/05/01 18:09:40;;;;;;;51.73;31.03;;;;;;;17.81;40.72;100540.41;5000514;56;1143005;-79
2023/05/01 18:14:46;;;;;;;40.27;24.17;;;;;;;17.77;41.55;100536.89;5005137;56;1142890;-79
2023/05/01 18:19:51;;;;;;;49.83;26.20;;;;;;;17.66;42.03;100535.87;4964198;56;1142980;-81
2023/05/01 18:24:57;;;;;;;104.13;57.83;;;;;;;17.61;43.07;100534.98;4938714;57;1142888;-79
2023/05/01 18:30:03;;;;;;;94.13;47.10;;;;;;;17.52;43.92;100534.14;5003907;56;1145255;-79
2023/05/01 18:35:12;;;;;;;81.70;40.37;;;;;;;17.42;44.62;100535.27;4863355;57;1142915;-79
2023/05/01 18:40:16;;;;;;;75.83;38.80;;;;;;;17.28;45.34;100534.05;4916056;57;1143271;-81
2023/05/01 18:45:22;;;;;;;70.87;40.63;;;;;;;17.12;46.35;100542.00;5005922;56;1142991;-80
2023/05/01 18:50:28;;;;;;;36.15;15.72;;;;;;;16.92;47.04;100537.92;5053188;56;1143066;-79
2023/05/01 18:55:34;;;;;;;15.70;6.33;;;;;;;16.68;47.85;100540.78;5096429;54;1142955;-81
2023/05/01 19:00:39;;;;;;;35.50;12.60;;;;;;;16.47;49.55;100528.28;5116296;56;1140979;-80
2023/05/01 19:05:45;;;;;;;52.27;30.73;;;;;;;16.25;50.61;100537.62;5095936;55;1143061;-77
2023/05/01 19:10:51;;;;;;;119.53;69.77;;;;;;;16.06;51.68;100537.30;5090458;55;1142789;-79
2023/05/01 19:15:57;;;;;;;27.83;12.97;;;;;;;15.94;52.62;100539.02;5106576;56;1144991;-78
2023/05/01 19:21:03;;;;;;;57.23;33.07;;;;;;;15.82;53.87;100529.08;5096163;56;1142939;-80
2023/05/01 19:26:11;;;;;;;35.23;20.97;;;;;;;15.68;54.13;100522.45;5096666;56;1142982;-78
2023/05/01 19:31:18;;;;;;;30.02;17.48;;;;;;;15.59;54.84;100525.17;5096196;56;1143109;-79
2023/05/01 19:36:24;;;;;;;17.85;11.30;;;;;;;15.44;55.46;100518.99;5117012;56;1142971;-79
2023/05/01 19:41:29;;;;;;;10.15;6.15;;;;;;;15.39;55.96;100521.29;5096567;56;1142933;-78
2023/05/01 19:46:35;;;;;;;15.20;6.15;;;;;;;15.35;56.63;100515.07;5096915;55;1141147;-79
2023/05/01 19:51:41;;;;;;;28.53;9.93;;;;;;;15.21;56.90;100515.08;5116506;55;1140900;-78
2023/05/01 19:56:49;;;;;;;15.40;5.37;;;;;;;15.05;57.60;100512.22;5096858;56;1141074;-78
2023/05/01 20:01:54;;;;;;;27.97;8.93;;;;;;;14.94;58.40;100510.60;5084540;56;1140655;-81
2023/05/01 20:07:01;;;;;;;19.37;7.30;;;;;;;14.80;58.92;100505.77;5092485;55;1141037;-79
2023/05/01 20:12:06;;;;;;;17.43;6.17;;;;;;;14.71;59.59;100510.12;5013700;56;1140879;-80
2023/05/01 20:17:12;;;;;;;14.83;5.63;;;;;;;14.63;60.24;100505.19;5013679;57;1140829;-79
2023/05/01 20:22:18;;;;;;;14.83;6.40;;;;;;;14.41;60.75;100499.22;5014048;56;1141013;-80
2023/05/01 20:27:24;;;;;;;17.80;8.78;;;;;;;14.27;61.56;100496.98;5033535;57;1140858;-79
2023/05/01 20:32:30;;;;;;;25.37;10.05;;;;;;;14.17;62.03;100486.02;5013629;57;1140732;-79
2023/05/01 20:37:35;;;;;;;15.17;6.67;;;;;;;14.16;62.54;100480.35;5013304;56;1142999;-78
2023/05/01 20:42:42;;;;;;;12.80;6.80;;;;;;;14.07;62.70;100478.03;5033291;56;1140723;-79
2023/05/01 20:47:49;;;;;;;9.40;5.03;;;;;;;14.02;63.21;100479.81;5093779;56;1140965;-78
2023/05/01 20:52:55;;;;;;;12.75;5.05;;;;;;;13.93;63.58;100483.80;5106015;56;1138906;-79
2023/05/01 20:58:01;;;;;;;17.07;6.57;;;;;;;13.85;64.06;100476.54;5126238;56;1141007;-79
2023/05/01 21:03:08;;;;;;;15.97;6.50;;;;;;;13.81;64.48;100478.28;5107013;56;1140975;-79
2023/05/01 21:08:14;;;;;;;13.13;5.70;;;;;;;13.77;64.80;100480.38;5106753;56;1140918;-78
2023/05/01 21:13:25;;;;;;;12.85;6.42;;;;;;;13.64;64.86;100484.64;5106906;54;1143554;-77
2023/05/01 21:18:30;;;;;;;14.13;6.47;;;;;;;13.64;65.62;100486.46;5058574;55;1140886;-77
2023/05/01 21:23:36;;;;;;;14.60;7.78;;;;;;;13.56;65.50;100478.36;5036214;56;1140715;-80
2023/05/01 21:28:42;;;;;;;16.70;7.47;;;;;;;13.47;65.71;100477.84;5032744;55;1140878;-80
2023/05/01 21:33:49;;;;;;;12.67;6.37;;;;;;;13.43;66.09;100473.33;5017014;56;1140859;-77
2023/05/01 21:38:55;;;;;;;11.70;6.43;;;;;;;13.42;66.60;100471.64;4917722;57;1140878;-81
2023/05/01 21:44:02;;;;;;;12.77;6.83;;;;;;;13.37;66.55;100474.70;4923196;56;1140957;-78
2023/05/01 21:49:11;;;;;;;18.50;9.13;;;;;;;13.32;66.97;100470.28;4893166;57;1141061;-78
2023/05/01 21:54:17;;;;;;;13.40;7.40;;;;;;;13.29;67.08;100471.88;4945763;57;1140802;-79
2023/05/01 21:59:23;;;;;;;17.37;6.72;;;;;;;13.13;66.59;100466.73;4931744;57;1140810;-80
2023/05/01 22:04:28;;;;;;;17.97;6.33;;;;;;;13.03;66.86;100467.54;4950118;58;1140916;-79
2023/05/01 22:09:34;;;;;;;15.20;6.50;;;;;;;13.04;66.73;100455.11;4924025;57;1140962;-78
2023/05/01 22:14:40;;;;;;;21.47;7.80;;;;;;;13.09;66.65;100458.69;4924247;57;1140761;-78
2023/05/01 22:19:45;;;;;;;13.20;7.03;;;;;;;13.14;66.12;100457.28;4940879;57;1141005;-79
2023/05/01 22:24:51;;;;;;;12.20;7.10;;;;;;;13.21;65.97;100450.49;4927827;57;1140727;-80
2023/05/01 22:29:57;;;;;;;15.93;6.97;;;;;;;13.26;65.76;100444.29;4927697;57;1140788;-80
2023/05/01 22:35:03;;;;;;;24.37;11.47;;;;;;;13.23;65.75;100444.56;4947143;56;1140909;-80
2023/05/01 22:40:09;;;;;;;24.83;10.83;;;;;;;13.20;66.48;100442.66;4927885;57;1143057;-80
2023/05/01 22:45:15;;;;;;;20.17;9.97;;;;;;;13.14;66.98;100433.38;4932158;57;1143314;-79
2023/05/01 22:50:21;;;;;;;31.40;9.93;;;;;;;13.15;67.27;100436.91;4919110;57;1150628;-80
2023/05/01 22:55:26;;;;;;;15.53;7.97;;;;;;;13.15;67.37;100433.77;4827811;59;1140977;-81
2023/05/01 23:00:32;;;;;;;14.23;7.95;;;;;;;13.14;67.53;100427.27;4928538;58;1140709;-79
2023/05/01 23:05:38;;;;;;;14.83;6.13;;;;;;;13.12;67.56;100429.21;4989557;57;1140831;-80
2023/05/01 23:10:43;;;;;;;17.93;8.13;;;;;;;13.10;67.24;100420.54;5052606;57;1140869;-78
2023/05/01 23:15:51;;;;;;;14.30;7.83;;;;;;;13.08;67.58;100422.48;5028555;57;1141056;-78